Time;durP1;ratioP1;P1;durP2;ratioP2;P2;SDS_P1;SDS_P2;PMS_P1;PMS_P2;Temp;Humidity;BMP_temperature;BMP_pressure;BME280_temperature;BME280_humidity;BME280_pressure;Samples;Min_cycle;Max_cycle;Signal;HPM_P1;HPM_P2
2023/01/09 00:01:29;;;;;;;37.50;4.80;;;;;;;21.75;59.08;97955.38;7300644;19;129366;-41
2023/01/09 00:03:54;;;;;;;67.45;8.80;;;;;;;21.77;57.72;97958.66;7298881;19;129588;-39
2023/01/09 00:06:20;;;;;;;41.78;5.22;;;;;;;21.77;58.38;97945.59;7296036;19;131219;-42
2023/01/09 00:08:45;;;;;;;39.58;5.20;;;;;;;21.79;57.79;97948.84;7301361;19;129807;-39
2023/01/09 00:11:11;;;;;;;41.55;5.68;;;;;;;21.78;57.51;97944.59;7293115;19;129834;-39
2023/01/09 00:13:37;;;;;;;42.63;5.60;;;;;;;21.82;57.54;97951.09;7295978;19;129233;-39
2023/01/09 00:16:04;;;;;;;39.78;5.10;;;;;;;21.72;57.60;97931.38;7299030;19;129808;-41
2023/01/09 00:18:29;;;;;;;;;;;;;;;21.89;58.75;97941.53;7298669;19;129868;-38
2023/01/09 00:20:57;;;;;;;22.43;3.93;;;;;;;21.77;57.98;97929.06;7299688;19;130275;-44
2023/01/09 00:23:23;;;;;;;51.38;6.38;;;;;;;21.87;58.01;97940.06;7298420;19;129733;-40
2023/01/09 00:25:48;;;;;;;41.80;5.25;;;;;;;21.91;58.24;97941.34;7299082;19;129303;-36
2023/01/09 00:28:13;;;;;;;35.60;4.80;;;;;;;21.88;57.65;97939.88;7299758;19;129514;-43
2023/01/09 00:30:39;;;;;;;31.38;4.63;;;;;;;21.85;57.50;97927.19;7293343;19;129123;-42
2023/01/09 00:33:04;;;;;;;71.95;8.88;;;;;;;21.87;57.74;97930.44;7299007;19;129641;-36
2023/01/09 00:35:29;;;;;;;46.50;5.77;;;;;;;21.85;58.37;97915.88;7299073;19;129677;-38
2023/01/09 00:37:55;;;;;;;28.95;4.20;;;;;;;21.87;57.36;97925.19;7308705;19;129932;-44
2023/01/09 00:40:20;;;;;;;41.67;5.40;;;;;;;21.85;58.02;97913.28;7297940;19;129878;-36
2023/01/09 00:42:50;;;;;;;28.05;4.05;;;;;;;21.85;57.68;97916.72;7304766;19;130300;-41
2023/01/09 00:45:20;;;;;;;41.25;5.32;;;;;;;21.87;58.22;97919.97;7306773;19;130956;-38
2023/01/09 00:47:51;;;;;;;43.28;5.20;;;;;;;21.89;59.29;97906.69;7306276;19;129592;-42
2023/01/09 00:50:27;;;;;;;35.25;4.80;;;;;;;21.89;59.25;97898.84;7306456;19;129448;-37
2023/01/09 00:52:55;;;;;;;31.02;4.28;;;;;;;21.91;58.13;97891.63;7307072;19;129523;-34
2023/01/09 00:55:20;;;;;;;49.75;6.47;;;;;;;21.88;58.01;97895.41;7296627;19;130253;-38
2023/01/09 00:57:46;;;;;;;28.60;3.87;;;;;;;21.89;57.47;97896.22;7309423;19;129467;-41
2023/01/09 01:00:12;;;;;;;54.43;6.40;;;;;;;21.87;57.63;97893.81;7306530;19;130055;-38
2023/01/09 01:02:37;;;;;;;37.33;4.97;;;;;;;21.85;57.81;97892.34;7305023;19;131708;-36
2023/01/09 01:07:48;;;;;;;63.35;7.70;;;;;;;21.85;57.99;97885.31;7303020;19;129476;-38
2023/01/09 01:10:21;;;;;;;54.55;6.13;;;;;;;21.87;59.12;97872.88;7303247;19;130268;-40
2023/01/09 01:12:48;;;;;;;27.75;4.00;;;;;;;21.86;58.45;97870.44;7305266;19;129169;-40
2023/01/09 01:15:14;;;;;;;50.70;5.82;;;;;;;21.87;58.17;97865.03;7304189;19;130316;-41
2023/01/09 01:17:40;;;;;;;42.75;4.97;;;;;;;21.87;57.85;97866.81;7304147;19;129846;-42
2023/01/09 01:20:09;;;;;;;35.50;5.00;;;;;;;21.84;58.42;97852.31;7306383;19;130795;-43
2023/01/09 01:22:34;;;;;;;41.13;5.82;;;;;;;21.88;58.91;97855.38;7305124;19;132248;-36
2023/01/09 01:25:00;;;;;;;61.65;7.95;;;;;;;21.87;57.89;97846.72;7302731;19;129677;-39
2023/01/09 01:27:26;;;;;;;59.47;7.23;;;;;;;21.87;58.04;97846.72;7301311;19;130610;-43
2023/01/09 01:29:52;;;;;;;48.20;5.70;;;;;;;21.86;57.53;97844.28;7302600;19;129327;-43
2023/01/09 01:32:17;;;;;;;39.60;5.60;;;;;;;21.87;58.22;97844.09;7300768;19;129721;-38
2023/01/09 01:34:43;;;;;;;39.47;5.37;;;;;;;21.87;57.39;97835.44;7300597;19;129472;-37
2023/01/09 01:37:08;;;;;;;67.90;8.23;;;;;;;21.87;57.45;97831.00;7298920;19;129429;-44
2023/01/09 01:39:33;;;;;;;53.60;7.07;;;;;;;21.89;57.40;97829.03;7297808;19;129145;-44
2023/01/09 01:41:59;;;;;;;60.80;7.27;;;;;;;21.87;58.02;97831.00;7300438;19;130438;-33
2023/01/09 01:45:02;;;;;;;36.30;5.00;;;;;;;21.90;59.36;97821.97;7301097;19;129952;-39
2023/01/09 01:47:37;;;;;;;44.63;5.88;;;;;;;21.92;59.26;97812.97;7301770;19;129607;-38
2023/01/09 01:50:09;;;;;;;19.63;3.38;;;;;;;21.84;58.20;97800.00;7303995;19;129584;-34
2023/01/09 01:52:36;;;;;;;73.68;8.77;;;;;;;21.89;58.62;97810.72;7302311;19;130623;-41
2023/01/09 01:55:05;;;;;;;75.30;9.32;;;;;;;21.89;58.00;97813.34;7300488;19;130271;-39
2023/01/09 01:57:32;;;;;;;42.15;5.63;;;;;;;21.90;57.72;97809.72;7302997;19;130367;-36
2023/01/09 02:00:01;;;;;;;;;;;;;;;21.94;58.99;97815.38;7306001;19;129491;-34
2023/01/09 02:02:30;;;;;;;73.57;8.73;;;;;;;21.91;58.18;97794.81;7302035;19;129433;-42
2023/01/09 02:04:57;;;;;;;46.78;6.15;;;;;;;21.84;57.95;97789.53;7300442;19;130652;-44
2023/01/09 02:07:23;;;;;;;49.38;5.82;;;;;;;21.90;57.63;97794.00;7303833;19;129545;-37
2023/01/09 02:09:49;;;;;;;28.42;3.92;;;;;;;21.91;58.15;97800.06;7301835;19;129384;-35
2023/01/09 02:12:16;;;;;;;36.92;4.97;;;;;;;21.80;57.82;97777.81;7305008;19;129425;-39
2023/01/09 02:14:42;;;;;;;49.00;6.88;;;;;;;21.92;58.44;97784.19;7303723;19;130772;-42
2023/01/09 02:17:39;;;;;;;29.50;4.25;;;;;;;21.94;59.46;97782.19;7299698;19;129253;-35
2023/01/09 02:20:20;;;;;;;31.45;4.30;;;;;;;21.96;58.19;97777.56;7306012;19;129350;-38
2023/01/09 02:23:06;;;;;;;52.30;6.57;;;;;;;21.87;57.91;97760.38;7299973;19;129557;-45
2023/01/09 02:25:46;;;;;;;46.67;6.25;;;;;;;21.92;58.05;97765.88;7299873;19;130297;-43
2023/01/09 02:28:45;;;;;;;33.67;4.65;;;;;;;21.93;58.84;97751.78;7302891;19;129956;-39
2023/01/09 02:31:48;;;;;;;53.45;6.45;;;;;;;21.95;59.11;97752.41;7299985;19;129368;-38
2023/01/09 02:34:25;;;;;;;49.70;5.88;;;;;;;21.94;58.99;97748.19;7300844;19;129549;-35
2023/01/09 02:37:06;;;;;;;30.83;4.03;;;;;;;21.92;59.49;97755.41;7302022;19;129597;-41
2023/01/09 02:39:53;;;;;;;48.40;5.93;;;;;;;21.85;59.65;97735.38;7303728;19;129138;-41
2023/01/09 02:42:22;;;;;;;32.50;4.40;;;;;;;21.89;59.01;97742.69;7303434;19;129447;-41
2023/01/09 02:44:47;;;;;;;44.10;6.25;;;;;;;21.91;57.67;97742.50;7303368;19;129174;-40
2023/01/09 02:47:15;;;;;;;34.15;4.63;;;;;;;21.92;58.39;97734.47;7301299;19;129694;-41
2023/01/09 02:50:03;;;;;;;39.65;5.18;;;;;;;21.92;59.41;97744.94;7302255;19;129556;-35
2023/01/09 02:52:34;;;;;;;35.83;5.30;;;;;;;21.90;58.42;97746.09;7301932;19;129100;-43
2023/01/09 02:55:07;;;;;;;38.92;5.38;;;;;;;21.93;58.93;97751.78;7300537;19;130157;-41
2023/01/09 02:57:44;;;;;;;34.88;4.75;;;;;;;21.91;58.59;97740.69;7302831;19;130452;-37
2023/01/09 03:00:33;;;;;;;35.00;4.68;;;;;;;21.90;58.50;97738.25;7299947;19;132164;-41
2023/01/09 03:03:02;;;;;;;36.08;5.07;;;;;;;21.82;58.45;97726.13;7302655;19;129424;-35
2023/01/09 03:05:28;;;;;;;43.83;5.85;;;;;;;21.93;57.69;97751.78;7300037;19;129104;-40
2023/01/09 03:08:07;;;;;;;43.28;5.35;;;;;;;21.90;58.62;97740.88;7304435;19;130589;-41
2023/01/09 03:10:47;;;;;;;49.08;5.95;;;;;;;21.82;59.53;97726.13;7299112;19;129864;-38
2023/01/09 03:13:17;;;;;;;38.20;5.07;;;;;;;21.90;58.85;97741.69;7303659;19;129579;-40
2023/01/09 03:15:44;;;;;;;33.50;4.72;;;;;;;21.91;58.15;97743.28;7301390;19;130355;-39
2023/01/09 03:18:12;;;;;;;35.22;4.95;;;;;;;21.88;58.31;97738.44;7301679;19;129686;-36
2023/01/09 03:20:39;;;;;;;46.30;6.22;;;;;;;21.90;57.80;97744.31;7299364;19;129506;-38
2023/01/09 03:23:06;;;;;;;43.10;6.40;;;;;;;21.90;57.94;97746.09;7301509;19;129906;-42
2023/01/09 03:25:32;;;;;;;39.67;5.22;;;;;;;21.92;58.69;97746.72;7299701;19;130876;-37
2023/01/09 03:28:03;;;;;;;52.13;6.88;;;;;;;21.89;58.28;97736.63;7301859;19;129510;-37
2023/01/09 03:30:29;;;;;;;40.28;5.40;;;;;;;21.88;58.05;97735.81;7301055;19;129558;-38
2023/01/09 03:32:55;;;;;;;43.00;5.25;;;;;;;21.88;58.77;97735.81;7302708;19;129472;-47
2023/01/09 03:35:22;;;;;;;53.10;6.85;;;;;;;21.85;58.56;97728.34;7295298;19;130023;-42
2023/01/09 03:37:47;;;;;;;21.13;3.53;;;;;;;21.86;58.65;97719.53;7294838;19;129466;-41
2023/01/09 03:40:13;;;;;;;63.20;7.72;;;;;;;21.86;58.60;97719.53;7299570;19;129462;-39
2023/01/09 03:42:38;;;;;;;41.65;5.53;;;;;;;21.85;58.40;97722.31;7300144;19;129190;-41
2023/01/09 03:45:04;;;;;;;65.18;8.68;;;;;;;21.83;58.32;97725.09;7294780;19;129376;-39
2023/01/09 03:47:30;;;;;;;36.30;4.78;;;;;;;21.85;57.72;97722.31;7303246;19;129415;-37
2023/01/09 03:49:56;;;;;;;49.80;6.60;;;;;;;21.77;58.47;97699.69;7298143;19;129691;-42
2023/01/09 03:52:21;;;;;;;53.53;6.43;;;;;;;21.86;58.19;97711.69;7300026;19;129854;-44
2023/01/09 03:54:46;;;;;;;34.42;4.68;;;;;;;21.85;58.88;97710.03;7297503;19;129641;-36
2023/01/09 03:57:11;;;;;;;52.30;6.63;;;;;;;21.85;58.49;97696.97;7298386;19;129998;-36
2023/01/09 03:59:37;;;;;;;41.53;5.03;;;;;;;21.83;58.10;97698.94;7301480;19;128987;-42
2023/01/09 04:02:02;;;;;;;59.00;7.50;;;;;;;21.82;58.09;97693.91;7300262;19;129007;-44
2023/01/09 04:04:28;;;;;;;54.83;6.47;;;;;;;21.74;58.43;97673.91;7298653;19;130817;-43
2023/01/09 04:06:53;;;;;;;26.60;3.95;;;;;;;21.84;58.50;97700.59;7300514;19;130888;-43
2023/01/09 04:09:18;;;;;;;41.87;5.00;;;;;;;21.78;58.40;97690.84;7297546;19;130100;-43
2023/01/09 04:11:44;;;;;;;54.63;6.63;;;;;;;21.86;58.41;97698.59;7304615;19;129705;-37
2023/01/09 04:14:09;;;;;;;34.15;4.55;;;;;;;21.76;58.84;97677.16;7308005;19;129330;-38
2023/01/09 04:16:34;;;;;;;27.65;4.47;;;;;;;21.85;58.59;97689.09;7303318;19;129751;-41
2023/01/09 04:19:00;;;;;;;42.73;5.50;;;;;;;21.90;57.75;97685.91;7307639;19;130034;-36
2023/01/09 04:21:26;;;;;;;33.42;4.47;;;;;;;21.88;58.02;97686.13;7305113;19;129781;-39
2023/01/09 04:23:51;;;;;;;40.42;5.78;;;;;;;21.87;58.65;97684.50;7304103;19;129395;-40
2023/01/09 04:26:16;;;;;;;43.30;5.50;;;;;;;21.85;58.57;97683.88;7305609;19;131035;-40
2023/01/09 04:28:42;;;;;;;34.78;4.38;;;;;;;21.85;58.37;97680.44;7307922;19;129566;-44
2023/01/09 04:31:08;;;;;;;46.33;6.20;;;;;;;21.83;59.10;97678.00;7304702;19;129103;-42
2023/01/09 04:33:33;;;;;;;39.40;5.10;;;;;;;21.78;58.22;97675.16;7308178;19;129851;-43
2023/01/09 04:35:59;;;;;;;45.70;5.63;;;;;;;21.57;58.32;97672.50;7305595;19;130329;-40
2023/01/09 04:38:26;;;;;;;42.70;6.00;;;;;;;21.63;58.15;97670.97;7304702;19;129784;-45
2023/01/09 04:40:51;;;;;;;;;;;;;;;22.17;56.85;97668.63;7307505;19;130017;-42
2023/01/09 04:43:16;;;;;;;27.08;4.10;;;;;;;22.77;54.80;97663.63;7307753;19;129149;-39
2023/01/09 04:45:42;;;;;;;57.17;6.68;;;;;;;23.23;53.80;97665.47;7299677;19;129600;-35
2023/01/09 04:48:07;;;;;;;32.47;4.30;;;;;;;23.46;52.86;97672.19;7306506;19;129403;-38
2023/01/09 04:50:32;;;;;;;42.20;5.85;;;;;;;23.58;52.66;97666.19;7299172;19;129562;-45
2023/01/09 04:52:58;;;;;;;28.40;4.65;;;;;;;23.58;52.42;97655.69;7305232;19;131997;-48
2023/01/09 04:55:23;;;;;;;48.60;5.60;;;;;;;23.69;52.44;97657.72;7304552;19;129624;-43
2023/01/09 04:57:48;;;;;;;38.83;4.80;;;;;;;23.76;52.14;97653.31;7302709;19;129562;-40
2023/01/09 05:00:14;;;;;;;62.07;7.43;;;;;;;23.67;51.94;97654.47;7303153;19;129395;-42
2023/01/09 05:02:40;;;;;;;54.33;6.40;;;;;;;23.78;52.27;97651.28;7306538;19;130829;-46
2023/01/09 05:05:07;;;;;;;80.30;9.70;;;;;;;23.87;52.06;97644.81;7304084;19;129777;-34
2023/01/09 05:07:33;;;;;;;45.17;6.15;;;;;;;23.90;51.76;97649.66;7306581;19;129173;-39
2023/01/09 05:09:58;;;;;;;50.90;6.83;;;;;;;24.01;51.01;97641.22;7302062;19;129857;-43
2023/01/09 05:12:24;;;;;;;34.93;4.73;;;;;;;24.03;51.00;97644.44;7297904;19;131820;-37
2023/01/09 05:14:50;;;;;;;40.60;5.15;;;;;;;24.11;51.36;97638.97;7302539;19;129678;-44
2023/01/09 05:17:15;;;;;;;46.63;5.60;;;;;;;24.09;51.16;97633.16;7304399;19;130154;-43
2023/01/09 05:19:41;;;;;;;33.03;4.23;;;;;;;24.18;50.97;97637.16;7305949;19;129504;-36
2023/01/09 05:22:06;;;;;;;54.80;6.80;;;;;;;24.23;50.68;97628.66;7302842;19;130040;-39
2023/01/09 05:24:32;;;;;;;57.88;7.10;;;;;;;24.23;50.51;97629.47;7305131;19;129865;-44
2023/01/09 05:26:57;;;;;;;19.52;3.70;;;;;;;24.30;50.60;97632.09;7305132;19;129640;-41
2023/01/09 05:29:22;;;;;;;35.13;4.43;;;;;;;24.36;50.48;97628.69;7298360;19;129363;-37
2023/01/09 05:31:48;;;;;;;30.07;4.23;;;;;;;24.36;50.40;97633.94;7301702;19;131654;-37
2023/01/09 05:34:13;;;;;;;44.90;5.70;;;;;;;24.34;50.19;97633.31;7306337;19;129998;-37
2023/01/09 05:36:38;;;;;;;43.57;6.20;;;;;;;24.14;50.55;97625.47;7297981;19;130776;-44
2023/01/09 05:39:05;;;;;;;39.40;5.07;;;;;;;24.04;51.53;97622.44;7302908;19;129946;-39
2023/01/09 05:41:30;;;;;;;58.47;6.53;;;;;;;23.88;51.70;97633.28;7303382;19;129607;-41
2023/01/09 05:43:56;;;;;;;54.70;6.97;;;;;;;23.68;51.96;97624.63;7300484;19;130021;-38
2023/01/09 05:46:21;;;;;;;32.73;4.30;;;;;;;23.35;52.99;97608.03;7301393;19;129729;-44
2023/01/09 05:48:47;;;;;;;48.28;6.13;;;;;;;23.29;53.68;97619.31;7301128;19;130153;-38
2023/01/09 05:51:12;;;;;;;57.58;7.63;;;;;;;23.00;54.23;97603.88;7299046;19;130006;-36
2023/01/09 05:53:38;;;;;;;56.72;6.78;;;;;;;22.96;54.69;97618.34;7301647;19;129652;-33
2023/01/09 05:56:03;;;;;;;34.72;4.80;;;;;;;22.75;54.85;97615.84;7303847;19;129768;-40
2023/01/09 05:58:28;;;;;;;41.67;5.32;;;;;;;22.64;55.32;97632.13;7303554;19;129594;-38
2023/01/09 06:00:54;;;;;;;58.10;6.72;;;;;;;22.47;56.00;97625.56;7299873;19;130091;-39
2023/01/09 06:03:19;;;;;;;36.08;4.82;;;;;;;22.33;55.73;97610.78;7301931;19;129944;-40
2023/01/09 06:05:45;;;;;;;39.57;5.57;;;;;;;22.46;55.83;97616.88;7301275;19;129469;-36
2023/01/09 06:08:10;;;;;;;102.28;12.50;;;;;;;22.53;55.20;97616.94;7297436;19;132155;-41
2023/01/09 06:10:35;;;;;;;122.22;14.43;;;;;;;22.65;54.08;97618.03;7269054;19;130980;-46
2023/01/09 06:13:01;;;;;;;99.03;12.30;;;;;;;22.82;53.63;97622.75;7268506;19;131214;-41
2023/01/09 06:15:26;;;;;;;113.23;14.03;;;;;;;23.03;53.37;97624.44;7264283;19;131128;-46
2023/01/09 06:17:52;;;;;;;120.00;14.02;;;;;;;23.22;52.96;97624.50;7269656;19;130728;-46
2023/01/09 06:20:17;;;;;;;114.68;14.65;;;;;;;23.37;52.79;97621.72;7270922;19;130059;-46
2023/01/09 06:22:44;;;;;;;109.43;13.43;;;;;;;23.44;52.22;97616.50;7263616;19;130253;-45
2023/01/09 06:25:10;;;;;;;144.90;18.25;;;;;;;23.60;52.07;97629.25;7266400;19;130624;-47
2023/01/09 06:27:35;;;;;;;109.80;13.13;;;;;;;23.71;51.83;97626.03;7273686;19;131498;-43
2023/01/09 06:30:01;;;;;;;106.00;12.43;;;;;;;23.79;51.90;97637.16;7270967;19;130169;-37
2023/01/09 06:32:26;;;;;;;103.33;12.67;;;;;;;23.95;51.91;97628.88;7271034;19;131291;-44
2023/01/09 06:34:51;;;;;;;127.23;14.83;;;;;;;23.99;51.39;97631.94;7270443;19;130343;-41
2023/01/09 06:37:17;;;;;;;95.40;11.43;;;;;;;24.05;51.61;97636.34;7274220;19;132378;-41
2023/01/09 06:39:42;;;;;;;91.53;10.97;;;;;;;24.05;50.70;97621.44;7275987;19;130169;-37
2023/01/09 06:42:08;;;;;;;94.00;11.75;;;;;;;24.05;51.15;97631.94;7274502;19;131509;-41
2023/01/09 06:44:35;;;;;;;102.53;12.47;;;;;;;23.97;51.22;97647.84;7269107;19;130032;-42
2023/01/09 06:47:01;;;;;;;100.47;12.15;;;;;;;23.78;51.94;97648.66;7274676;19;130558;-46
2023/01/09 06:49:27;;;;;;;95.05;11.57;;;;;;;23.62;52.38;97651.66;7272976;19;132783;-46
2023/01/09 06:51:52;;;;;;;85.15;10.25;;;;;;;23.42;53.08;97650.78;7268664;19;130392;-38
2023/01/09 06:54:18;;;;;;;165.20;20.53;;;;;;;23.33;53.18;97651.19;7253770;19;130986;-45
2023/01/09 06:56:44;;;;;;;133.83;15.33;;;;;;;23.13;54.36;97661.56;7269247;19;131618;-45
2023/01/09 06:59:10;;;;;;;92.33;11.73;;;;;;;22.95;54.45;97659.50;7255309;19;130829;-42
2023/01/09 07:01:39;;;;;;;102.50;12.55;;;;;;;22.77;54.87;97659.22;7268437;19;130118;-46
2023/01/09 07:04:05;;;;;;;99.10;12.60;;;;;;;22.62;55.38;97661.16;7268973;19;130907;-45
2023/01/09 07:06:31;;;;;;;116.97;14.07;;;;;;;22.56;56.05;97664.50;7274149;19;130014;-41
2023/01/09 07:08:56;;;;;;;143.80;17.83;;;;;;;22.45;56.52;97659.78;7272349;19;131065;-44
2023/01/09 07:11:22;;;;;;;73.57;9.15;;;;;;;22.29;56.32;97648.81;7282895;19;131061;-42
2023/01/09 07:13:47;;;;;;;76.10;10.37;;;;;;;22.48;56.33;97662.03;7272916;19;130987;-36
2023/01/09 07:16:12;;;;;;;113.40;13.32;;;;;;;22.68;55.90;97659.53;7269100;19;131287;-42
2023/01/09 07:18:38;;;;;;;102.43;12.60;;;;;;;22.74;54.90;97643.84;7270926;19;130907;-47
2023/01/09 07:21:05;;;;;;;90.70;11.98;;;;;;;23.04;54.33;97667.97;7272808;19;130171;-46
2023/01/09 07:23:30;;;;;;;;;;;;;;;23.19;53.96;97673.88;7272571;19;130442;-37
2023/01/09 07:25:55;;;;;;;85.35;11.38;;;;;;;23.30;53.18;97668.13;7268773;19;133055;-48
2023/01/09 07:28:20;;;;;;;197.02;23.13;;;;;;;23.45;52.72;97665.34;7267402;19;130113;-46
2023/01/09 07:30:46;;;;;;;100.55;12.77;;;;;;;22.96;53.33;97666.34;7261886;19;131445;-43
2023/01/09 07:33:11;;;;;;;117.73;14.87;;;;;;;22.70;53.56;97671.47;7268807;19;132155;-41
2023/01/09 07:35:37;;;;;;;119.85;14.90;;;;;;;22.70;54.44;97665.41;7267078;19;130259;-43
2023/01/09 07:38:02;;;;;;;98.75;12.35;;;;;;;22.66;54.32;97664.19;7270975;19;130916;-38
2023/01/09 07:40:27;;;;;;;83.50;11.13;;;;;;;22.67;54.25;97656.13;7270896;19;130428;-46
2023/01/09 07:42:53;;;;;;;94.63;11.90;;;;;;;22.70;54.39;97654.94;7272357;19;130136;-38
2023/01/09 07:45:18;;;;;;;107.23;13.60;;;;;;;22.78;54.63;97667.88;7262240;19;130886;-42
2023/01/09 07:47:44;;;;;;;87.60;11.10;;;;;;;22.75;54.82;97665.63;7279468;19;130912;-39
2023/01/09 07:50:09;;;;;;;97.07;12.33;;;;;;;22.73;55.13;97659.78;7272079;19;130718;-44
2023/01/09 07:52:35;;;;;;;113.43;14.02;;;;;;;22.71;54.95;97667.03;7270374;19;132715;-37
2023/01/09 07:55:00;;;;;;;128.47;15.63;;;;;;;22.67;55.58;97677.09;7272769;19;130677;-40
2023/01/09 07:57:26;;;;;;;101.97;12.43;;;;;;;22.63;55.86;97675.03;7269152;19;130939;-41
2023/01/09 07:59:51;;;;;;;84.30;10.93;;;;;;;22.51;55.86;97671.31;7274555;19;129904;-44
2023/01/09 08:02:17;;;;;;;245.38;30.17;;;;;;;22.38;53.60;97682.50;7264606;19;131347;-46
2023/01/09 08:04:42;;;;;;;106.72;13.32;;;;;;;22.30;53.55;97687.06;7246390;19;130762;-45
2023/01/09 08:07:07;;;;;;;105.78;13.75;;;;;;;22.25;54.34;97687.63;7263382;19;131117;-37
2023/01/09 08:09:33;;;;;;;169.32;21.02;;;;;;;22.20;54.21;97689.19;7248776;19;131863;-45
2023/01/09 08:11:58;;;;;;;112.32;15.45;;;;;;;22.11;54.44;97682.50;7264013;19;130004;-43
2023/01/09 08:14:24;;;;;;;135.97;17.87;;;;;;;22.08;54.13;97691.50;7268315;19;129688;-46
2023/01/09 08:16:49;;;;;;;107.03;13.43;;;;;;;22.02;54.43;97692.28;7263690;19;131795;-39
2023/01/09 08:19:14;;;;;;;131.07;17.20;;;;;;;22.00;54.08;97690.88;7251284;19;130089;-41
2023/01/09 08:21:40;;;;;;;144.90;17.70;;;;;;;22.01;54.38;97695.91;7263316;19;131206;-46
2023/01/09 08:24:05;;;;;;;127.10;17.05;;;;;;;21.95;54.61;97697.47;7265775;19;130488;-42
2023/01/09 08:26:31;;;;;;;161.20;20.05;;;;;;;21.98;54.55;97695.47;7251672;19;131193;-46
2023/01/09 08:28:56;;;;;;;60.60;8.13;;;;;;;22.12;54.43;97702.41;7279347;19;130129;-37
2023/01/09 08:31:22;;;;;;;55.65;7.30;;;;;;;22.16;54.37;97699.25;7300343;19;129204;-42
2023/01/09 08:33:47;;;;;;;38.80;5.93;;;;;;;22.12;55.07;97682.31;7299258;19;129613;-38
2023/01/09 08:36:12;;;;;;;36.80;5.60;;;;;;;22.32;54.55;97704.22;7303504;19;130115;-36
2023/01/09 08:38:38;;;;;;;48.45;5.95;;;;;;;22.29;54.28;97701.16;7305953;19;130249;-42
2023/01/09 08:47:04;;;;;;;30.83;4.93;;;;;;;22.46;55.13;97719.00;7297615;19;130482;-41
2023/01/09 08:49:16;;;;;;;40.83;5.50;;;;;;;22.67;54.47;97719.00;7304068;19;129155;-35
2023/01/09 08:51:42;;;;;;;31.30;4.33;;;;;;;22.73;54.83;97727.88;7303627;19;129682;-39
2023/01/09 08:54:07;;;;;;;62.30;7.73;;;;;;;22.70;54.34;97736.94;7305621;19;129402;-31
2023/01/09 08:56:32;;;;;;;54.28;6.95;;;;;;;22.78;54.68;97735.97;7300547;19;129644;-40
2023/01/09 08:58:57;;;;;;;41.33;5.80;;;;;;;22.77;54.54;97729.94;7306795;19;129400;-38
2023/01/09 09:01:23;;;;;;;28.45;4.35;;;;;;;22.70;54.73;97738.75;7304069;19;128971;-40
2023/01/09 09:03:48;;;;;;;43.50;5.37;;;;;;;;;;7305439;19;129450;-42
2023/01/09 09:06:13;;;;;;;42.33;5.67;;;;;;;22.59;54.85;97741.91;7303114;19;129206;-38
2023/01/09 09:08:39;;;;;;;32.03;4.50;;;;;;;22.50;55.51;97743.81;7306812;19;129388;-40
2023/01/09 09:11:04;;;;;;;63.40;8.53;;;;;;;22.43;55.96;97742.94;7298002;19;129258;-42
2023/01/09 09:13:30;;;;;;;38.57;5.60;;;;;;;22.38;56.11;97745.34;7303226;19;130091;-38
2023/01/09 09:15:55;;;;;;;33.60;5.10;;;;;;;22.34;56.08;97748.53;7301791;19;129951;-39
2023/01/09 09:18:20;;;;;;;44.00;6.00;;;;;;;22.27;56.12;97737.19;7305468;19;129965;-41
2023/01/09 09:20:46;;;;;;;30.77;4.40;;;;;;;22.23;56.70;97736.75;7302605;19;130000;-38
2023/01/09 09:23:11;;;;;;;43.88;5.78;;;;;;;22.09;56.31;97729.78;7304822;19;129504;-39
2023/01/09 09:25:39;;;;;;;40.97;5.90;;;;;;;22.10;56.50;97741.88;7303282;19;129396;-41
2023/01/09 09:28:05;;;;;;;35.20;4.88;;;;;;;22.11;57.37;97742.69;7306256;19;129673;-39
2023/01/09 09:30:30;;;;;;;41.33;5.43;;;;;;;22.10;57.03;97751.53;7304017;19;129905;-39
2023/01/09 09:32:56;;;;;;;30.42;4.50;;;;;;;22.14;56.60;97761.44;7306551;19;129708;-40
2023/01/09 09:35:21;;;;;;;38.23;5.00;;;;;;;22.22;57.09;97768.34;7303674;19;129575;-41
2023/01/09 09:37:58;;;;;;;33.08;4.13;;;;;;;22.29;56.55;97764.00;7304117;19;131168;-34
2023/01/09 09:40:40;;;;;;;44.72;6.05;;;;;;;22.32;56.61;97766.22;7304050;19;129582;-38
2023/01/09 09:46:40;;;;;;;38.20;5.13;;;;;;;22.47;56.60;97769.56;7301812;19;130426;-40
2023/01/09 09:49:15;;;;;;;39.58;5.35;;;;;;;22.53;56.06;97771.47;7301515;19;130605;-34
2023/01/09 09:51:48;;;;;;;33.47;4.53;;;;;;;22.58;56.04;97776.94;7303052;19;129742;-42
2023/01/09 09:54:26;;;;;;;52.10;5.88;;;;;;;22.65;55.57;97778.63;7303296;19;129954;-37
2023/01/09 09:56:55;;;;;;;46.88;5.45;;;;;;;22.71;55.33;97779.69;7302110;19;129132;-38
2023/01/09 09:59:24;;;;;;;37.35;5.05;;;;;;;22.74;55.58;97779.31;7298732;19;130514;-38
2023/01/09 10:01:56;;;;;;;29.95;4.15;;;;;;;22.73;55.22;97780.28;7303586;19;130077;-42
2023/01/09 10:04:24;;;;;;;35.20;4.43;;;;;;;22.74;55.83;97782.72;7303374;19;130342;-41
2023/01/09 10:06:55;;;;;;;56.05;6.78;;;;;;;22.72;55.54;97776.88;7296832;19;129515;-40
2023/01/09 10:09:45;;;;;;;38.10;4.72;;;;;;;22.71;55.96;97782.31;7304434;19;130509;-40
2023/01/09 10:12:22;;;;;;;61.22;6.95;;;;;;;22.63;55.66;97792.91;7303419;19;129104;-41
2023/01/09 10:14:48;;;;;;;45.47;5.10;;;;;;;22.53;56.55;97787.16;7302712;19;129896;-39
2023/01/09 10:17:23;;;;;;;42.08;5.25;;;;;;;22.45;56.66;97792.50;7301831;19;130186;-40
2023/01/09 10:20:16;;;;;;;33.35;4.57;;;;;;;22.41;57.05;97793.91;7303535;19;129954;-44
2023/01/09 10:22:41;;;;;;;27.42;3.83;;;;;;;22.28;57.14;97786.72;7296651;19;130266;-40
2023/01/09 10:25:35;;;;;;;79.00;10.17;;;;;;;22.29;56.93;97804.06;7301356;19;130199;-41
2023/01/09 10:28:18;;;;;;;35.00;4.60;;;;;;;22.22;57.53;97807.59;7302802;19;129474;-44
2023/01/09 10:30:52;;;;;;;30.02;4.07;;;;;;;22.18;57.56;97816.84;7301831;19;129583;-36
2023/01/09 10:33:35;;;;;;;43.67;5.43;;;;;;;22.12;57.99;97825.44;7302759;19;129274;-40
2023/01/09 10:36:13;;;;;;;39.33;4.80;;;;;;;22.15;57.45;97827.69;7302265;19;130378;-37
2023/01/09 10:38:40;;;;;;;;;;;;;;;22.08;57.64;97829.44;7304128;19;130392;-42
2023/01/09 10:41:12;;;;;;;32.80;4.68;;;;;;;22.15;57.20;97828.47;7302661;19;130423;-36
2023/01/09 10:44:02;;;;;;;22.25;3.63;;;;;;;22.29;56.91;97837.28;7303300;19;129272;-42
2023/01/09 10:46:34;;;;;;;32.53;4.50;;;;;;;22.42;56.61;97851.31;7300351;19;129747;-39
2023/01/09 10:49:06;;;;;;;35.00;4.68;;;;;;;22.45;56.46;97852.75;7302757;19;131295;-37
2023/01/09 10:51:44;;;;;;;33.35;4.57;;;;;;;22.39;57.12;97835.19;7300708;19;130467;-38
2023/01/09 10:54:14;;;;;;;63.22;7.18;;;;;;;22.54;56.76;97843.81;7299793;19;129717;-43
2023/01/09 10:56:46;;;;;;;38.83;5.15;;;;;;;22.49;56.46;97833.06;7299725;19;130127;-39
2023/01/09 10:59:11;;;;;;;84.40;10.32;;;;;;;22.65;56.57;97851.16;7299679;19;129561;-40
2023/01/09 11:01:39;;;;;;;36.73;4.83;;;;;;;22.70;55.76;97865.31;7299542;19;129191;-33
2023/01/09 11:04:24;;;;;;;44.97;5.45;;;;;;;22.72;56.32;97862.50;7302267;19;129877;-45
2023/01/09 11:06:58;;;;;;;37.90;4.85;;;;;;;22.74;55.70;97860.50;7301911;19;129550;-42
2023/01/09 11:09:23;;;;;;;43.55;5.28;;;;;;;22.80;56.00;97872.84;7301697;19;129014;-35
2023/01/09 11:11:48;;;;;;;33.80;4.33;;;;;;;22.63;55.86;97863.63;7301705;19;129767;-41
2023/01/09 11:14:26;;;;;;;65.73;7.57;;;;;;;22.71;55.79;97874.00;7300015;19;129844;-35
2023/01/09 11:16:51;;;;;;;41.47;5.18;;;;;;;22.61;56.40;97865.63;7300795;19;129389;-45
2023/01/09 11:19:17;;;;;;;44.77;5.37;;;;;;;22.65;56.07;97879.97;7300876;19;129370;-36
2023/01/09 11:21:43;;;;;;;31.57;4.17;;;;;;;22.59;56.63;97878.09;7293915;19;129411;-42
2023/01/09 11:24:17;;;;;;;48.77;5.83;;;;;;;22.45;56.73;97871.06;7298886;19;131119;-38
2023/01/09 11:26:44;;;;;;;38.10;5.05;;;;;;;22.41;57.14;97875.09;7296686;19;129515;-34
2023/01/09 11:29:17;;;;;;;42.92;4.65;;;;;;;22.37;57.04;97881.69;7295336;19;129437;-41
2023/01/09 11:31:52;;;;;;;40.28;4.97;;;;;;;22.33;57.26;97883.06;7300721;19;130999;-41
2023/01/09 11:34:21;;;;;;;38.92;4.80;;;;;;;22.27;57.67;97875.94;7301916;19;129666;-40